createdAt,value
2023-02-03T00:05:26.283Z,98945.81
2023-02-03T00:07:53.525Z,98949.28
2023-02-03T00:10:21.528Z,98946.53
2023-02-03T00:12:54.937Z,98941.16
2023-02-03T00:15:23.204Z,98942.00
2023-02-03T00:17:51.014Z,98951.63
2023-02-03T00:20:17.816Z,98963.91
2023-02-03T00:22:44.372Z,98979.78
2023-02-03T00:25:12.420Z,98963.56
2023-02-03T00:27:39.008Z,98994.69
2023-02-03T00:30:06.604Z,98984.13
2023-02-03T00:32:33.225Z,98992.13
2023-02-03T00:34:59.905Z,98992.88
2023-02-03T00:37:26.565Z,99002.63
2023-02-03T00:39:53.299Z,99004.31
2023-02-03T00:42:19.991Z,98995.44
2023-02-03T00:44:46.635Z,98998.00
2023-02-03T00:47:13.140Z,98976.59
2023-02-03T00:49:39.842Z,98989.09
2023-02-03T00:52:06.379Z,99006.66
2023-02-03T00:54:33.802Z,99001.38
2023-02-03T00:57:00.498Z,99006.66
2023-02-03T00:59:27.048Z,99011.94
2023-02-03T01:01:53.673Z,98992.59
2023-02-03T01:04:20.432Z,99011.81
2023-02-03T01:06:46.965Z,99011.81
2023-02-03T01:09:13.539Z,99000.00
2023-02-03T01:11:40.407Z,99016.16
2023-02-03T01:14:07.631Z,99023.16
2023-02-03T01:16:38.193Z,99022.34
2023-02-03T01:19:05.026Z,99021.38
2023-02-03T01:21:32.243Z,99016.94
2023-02-03T01:23:59.566Z,99022.22
2023-02-03T01:26:26.515Z,99013.44
2023-02-03T01:28:55.239Z,99008.25
2023-02-03T01:31:28.789Z,99016.00
2023-02-03T01:33:56.721Z,99008.06
2023-02-03T01:36:26.365Z,99003.06
2023-02-03T01:38:53.566Z,99001.91
2023-02-03T01:41:25.781Z,98994.81
2023-02-03T01:43:54.933Z,98992.19
2023-02-03T01:46:21.421Z,98997.47
2023-02-03T01:48:48.118Z,98992.19
2023-02-03T01:51:15.027Z,98989.53
2023-02-03T01:53:42.279Z,98972.38
2023-02-03T01:56:09.700Z,98979.78
2023-02-03T01:58:39.661Z,98985.06
2023-02-03T02:01:07.081Z,98989.41
2023-02-03T02:04:04.507Z,98983.28
2023-02-03T02:06:31.165Z,98927.19
2023-02-03T02:09:00.745Z,98976.19
2023-02-03T02:11:28.220Z,98973.56
2023-02-03T02:13:58.175Z,98982.31
2023-02-03T02:16:45.741Z,98973.56
2023-02-03T02:19:37.479Z,98973.56
2023-02-03T02:22:17.616Z,98970.06
2023-02-03T02:25:10.045Z,98962.13
2023-02-03T02:27:42.648Z,98966.56
2023-02-03T02:30:18.255Z,98961.28
2023-02-03T02:32:51.603Z,98966.56
2023-02-03T02:35:33.393Z,98970.16
2023-02-03T02:38:39.716Z,98965.72
2023-02-03T02:41:13.512Z,98967.50
2023-02-03T02:43:47.269Z,98966.66
2023-02-03T02:46:18.123Z,98979.06
2023-02-03T02:49:10.167Z,98970.16
2023-02-03T02:51:40.592Z,98968.38
2023-02-03T02:54:11.895Z,98975.44
2023-02-03T02:56:40.675Z,98970.16
2023-02-03T02:59:08.810Z,98948.88
2023-02-03T03:01:35.719Z,98963.19
2023-02-03T03:04:06.629Z,98965.84
2023-02-03T03:06:56.377Z,98955.25
2023-02-03T03:09:48.403Z,98951.75
2023-02-03T03:12:21.091Z,98942.09
2023-02-03T03:14:53.506Z,98937.69
2023-02-03T03:17:24.647Z,98928.88
2023-02-03T03:19:56.187Z,98930.69
2023-02-03T03:22:34.336Z,98929.00
2023-02-03T03:25:15.950Z,98933.75
2023-02-03T03:27:49.736Z,98937.88
2023-02-03T03:30:37.511Z,98940.53
2023-02-03T03:33:05.679Z,98954.63
2023-02-03T03:35:55.203Z,98952.91
2023-02-03T03:38:31.937Z,98952.56
2023-02-03T03:41:05.716Z,98969.09
2023-02-03T03:43:38.950Z,98960.00
2023-02-03T03:46:14.056Z,98926.53
2023-02-03T03:48:50.463Z,98965.50
2023-02-03T03:51:26.654Z,98944.94
2023-02-03T03:53:56.281Z,98946.97
2023-02-03T03:56:28.668Z,98942.53
2023-02-03T03:58:57.797Z,98927.84
2023-02-03T04:01:25.260Z,98926.88
2023-02-03T04:04:02.789Z,98932.16
2023-02-03T04:06:29.380Z,98926.03
2023-02-03T04:08:56.114Z,98923.38
2023-02-03T04:11:41.164Z,98924.25
2023-02-03T04:14:07.831Z,98915.56
2023-02-03T04:16:34.415Z,98922.66
2023-02-03T04:19:00.997Z,98914.81
2023-02-03T04:21:27.504Z,98913.03
2023-02-03T04:23:56.502Z,98910.38
2023-02-03T04:26:23.847Z,98907.09
2023-02-03T04:28:52.546Z,98910.56
2023-02-03T04:31:19.263Z,98914.91
2023-02-03T04:33:45.924Z,98923.78
2023-02-03T04:36:12.533Z,98920.31
2023-02-03T04:38:39.103Z,98905.38
2023-02-03T04:41:05.632Z,98910.69
2023-02-03T04:43:32.257Z,98887.53
2023-02-03T04:46:02.107Z,98888.88
2023-02-03T04:48:29.029Z,98890.59
2023-02-03T04:50:55.607Z,98896.63
2023-02-03T04:53:22.330Z,98894.06
2023-02-03T04:55:49.078Z,98886.13
2023-02-03T04:58:15.664Z,98888.88
2023-02-03T05:00:42.230Z,98884.47
2023-02-03T05:03:08.868Z,98875.31
2023-02-03T05:05:35.365Z,98887.19
2023-02-03T05:08:01.953Z,98889.84
2023-02-03T05:10:28.770Z,98867.63
2023-02-03T05:12:55.548Z,98885.50
2023-02-03T05:15:22.070Z,98884.66
2023-02-03T05:17:48.865Z,98874.91
2023-02-03T05:20:15.436Z,98872.28
2023-02-03T05:22:42.003Z,98860.63
2023-02-03T05:25:08.913Z,98872.28
2023-02-03T05:27:37.948Z,98866.16
2023-02-03T05:30:05.241Z,98851.66
2023-02-03T05:32:32.038Z,98850.28
2023-02-03T05:34:58.544Z,98849.34
2023-02-03T05:37:25.105Z,98837.19
2023-02-03T05:39:51.667Z,98838.88
2023-02-03T05:42:18.185Z,98846.81
2023-02-03T05:44:44.694Z,98790.91
2023-02-03T05:47:11.301Z,98838.44
2023-02-03T05:49:37.787Z,98836.53
2023-02-03T05:52:04.526Z,98839.94
2023-02-03T05:54:31.688Z,98835.59
2023-02-03T05:56:58.328Z,98837.38
2023-02-03T05:59:24.875Z,98803.28
2023-02-03T06:01:51.516Z,98840.13
2023-02-03T06:04:18.147Z,98844.47
2023-02-03T06:06:44.948Z,98834.84
2023-02-03T06:09:11.460Z,98827.53
2023-02-03T06:11:38.138Z,98831.38
2023-02-03T06:14:04.858Z,98817.28
2023-02-03T06:16:31.647Z,98807.66
2023-02-03T06:18:59.627Z,98799.00
2023-02-03T06:21:26.793Z,98797.94
2023-02-03T06:23:53.566Z,98792.75
2023-02-03T06:26:20.303Z,98785.16
2023-02-03T06:28:46.886Z,98778.69
2023-02-03T06:31:13.684Z,98780.50
2023-02-03T06:33:40.229Z,98770.88
2023-02-03T06:36:07.019Z,98764.94
2023-02-03T06:38:33.663Z,98783.16
2023-02-03T06:41:00.285Z,98785.88
2023-02-03T06:43:26.817Z,98756.66
2023-02-03T06:45:53.495Z,98776.34
2023-02-03T06:48:20.018Z,98776.56
2023-02-03T06:50:48.629Z,98771.47
2023-02-03T06:53:15.459Z,98776.97
2023-02-03T06:55:42.155Z,98769.34
2023-02-03T06:58:08.792Z,98762.47
2023-02-03T07:00:35.545Z,98754.53
2023-02-03T07:03:02.872Z,98743.13
2023-02-03T07:05:29.724Z,98739.75
2023-02-03T07:07:56.425Z,98742.38
2023-02-03T07:10:23.185Z,98746.41
2023-02-03T07:12:50.930Z,98747.38
2023-02-03T07:15:18.082Z,98742.19
2023-02-03T07:17:48.543Z,98738.69
2023-02-03T07:20:15.301Z,98735.50
2023-02-03T07:22:43.879Z,98739.84
2023-02-03T07:25:10.518Z,98737.22
2023-02-03T07:27:37.031Z,98715.84
2023-02-03T07:30:04.716Z,98727.59
2023-02-03T07:32:32.860Z,98725.81
2023-02-03T07:35:01.283Z,98735.63
2023-02-03T07:37:27.847Z,98716.38
2023-02-03T07:39:54.487Z,98716.38
2023-02-03T07:42:20.982Z,98711.09
2023-02-03T07:44:50.647Z,98702.22
2023-02-03T07:47:17.151Z,98698.66
2023-02-03T07:49:43.763Z,98695.16
2023-02-03T07:52:10.327Z,98690.72
2023-02-03T07:54:36.867Z,98694.19
2023-02-03T07:57:03.471Z,98695.06
2023-02-03T07:59:30.098Z,98686.28
2023-02-03T08:01:56.644Z,98674.75
2023-02-03T08:04:24.368Z,98682.69
2023-02-03T08:06:50.981Z,98674.75
2023-02-03T08:09:17.623Z,98664.19
2023-02-03T08:11:44.129Z,98655.31
2023-02-03T08:14:10.742Z,98657.13
2023-02-03T08:16:37.577Z,98650.84
2023-02-03T08:19:04.186Z,98639.56
2023-02-03T08:21:31.062Z,98641.03
2023-02-03T08:23:57.622Z,98634.81
2023-02-03T08:26:24.136Z,98643.56
2023-02-03T08:28:50.957Z,98631.97
2023-02-03T08:31:17.926Z,98629.31
2023-02-03T08:33:44.655Z,98620.41
2023-02-03T08:36:14.061Z,98615.88
2023-02-03T08:38:41.794Z,98616.63
2023-02-03T08:41:11.002Z,98620.97
2023-02-03T08:43:37.715Z,98605.19
2023-02-03T08:46:06.125Z,98605.81
2023-02-03T08:48:33.247Z,98605.72
2023-02-03T08:51:00.264Z,98601.16
2023-02-03T08:53:27.500Z,98595.75
2023-02-03T08:55:54.120Z,98590.41
2023-02-03T08:58:20.836Z,98587.63
2023-02-03T09:00:49.782Z,98576.13
2023-02-03T09:03:16.437Z,98570.72
2023-02-03T09:05:43.066Z,98573.22
2023-02-03T09:08:09.716Z,98568.81
2023-02-03T09:10:36.578Z,98563.41
2023-02-03T09:13:03.634Z,98569.44
2023-02-03T09:15:30.452Z,98564.06
2023-02-03T09:17:57.893Z,98563.13
2023-02-03T09:20:26.425Z,98563.81
2023-02-03T09:22:54.927Z,98564.56
2023-02-03T09:25:21.577Z,98561.81
2023-02-03T09:27:48.319Z,98558.22
2023-02-03T09:30:15.044Z,98567.84
2023-02-03T09:32:42.105Z,98560.66
2023-02-03T09:35:17.594Z,98552.72
2023-02-03T09:37:44.152Z,98546.34
2023-02-03T09:40:20.829Z,98543.72
2023-02-03T09:43:04.074Z,98537.47
2023-02-03T09:45:31.817Z,98529.41
2023-02-03T09:48:05.567Z,98527.59
2023-02-03T09:50:35.650Z,98522.31
2023-02-03T09:53:17.774Z,98513.44
2023-02-03T09:55:46.268Z,98499.25
2023-02-03T09:58:15.594Z,98493.16
2023-02-03T10:00:46.295Z,98493.16
2023-02-03T10:03:49.225Z,98489.44
2023-02-03T10:06:21.649Z,98475.34
2023-02-03T10:08:50.957Z,98463.81
2023-02-03T10:11:41.665Z,98463.69
2023-02-03T10:14:27.625Z,98454.94
2023-02-03T10:17:08.512Z,98444.25
2023-02-03T10:19:48.114Z,98436.31
2023-02-03T10:22:20.087Z,98432.84
2023-02-03T10:24:49.863Z,98423.94
2023-02-03T10:27:24.590Z,98412.38
2023-02-03T10:29:59.232Z,98396.50
2023-02-03T10:32:27.821Z,98392.91
2023-02-03T10:34:55.318Z,98387.63
2023-02-03T10:37:32.918Z,98372.63
2023-02-03T10:40:01.693Z,98361.19
2023-02-03T10:42:51.273Z,98354.13
2023-02-03T10:45:18.374Z,98342.69
2023-02-03T10:47:52.308Z,98337.31
2023-02-03T10:50:24.558Z,98322.38
2023-02-03T10:52:51.213Z,98308.31
2023-02-03T10:55:26.901Z,98297.72
2023-02-03T10:57:54.325Z,98288.97
2023-02-03T11:00:29.116Z,98278.41
2023-02-03T11:03:00.642Z,98257.13
2023-02-03T11:05:27.430Z,98258.44
2023-02-03T11:07:56.779Z,98251.94
2023-02-03T11:10:26.600Z,98243.06
2023-02-03T11:13:08.829Z,98233.44
2023-02-03T11:15:35.520Z,98228.16
2023-02-03T11:18:02.099Z,98218.66
2023-02-03T11:20:29.755Z,98196.31
2023-02-03T11:22:56.627Z,98200.03
2023-02-03T11:25:32.427Z,98174.09
2023-02-03T11:28:06.819Z,98178.88
2023-02-03T11:30:34.707Z,98168.44
2023-02-03T11:33:02.588Z,98158.34
2023-02-03T11:35:31.700Z,98160.50
2023-02-03T11:38:02.053Z,98144.66
2023-02-03T11:40:31.038Z,98135.03
2023-02-03T11:42:57.565Z,98133.22
2023-02-03T11:45:44.855Z,98120.00
2023-02-03T11:48:23.352Z,98117.47
2023-02-03T11:51:34.934Z,98105.94
2023-02-03T11:54:13.468Z,98088.41
2023-02-03T11:56:58.347Z,98081.28
2023-02-03T11:59:57.328Z,98080.59
2023-02-03T12:02:39.041Z,98070.03
2023-02-03T12:05:17.551Z,98058.59
2023-02-03T12:07:44.090Z,98034.78
2023-02-03T12:10:32.014Z,98033.16
2023-02-03T12:12:58.710Z,98035.88
2023-02-03T12:15:28.213Z,98020.88
2023-02-03T12:18:07.147Z,98021.84
2023-02-03T12:20:33.667Z,98004.31
2023-02-03T12:23:12.347Z,97992.03
2023-02-03T12:25:57.249Z,97978.97
2023-02-03T12:28:49.015Z,97967.56
2023-02-03T12:31:22.989Z,97968.53
2023-02-03T12:33:56.453Z,97967.66
2023-02-03T12:37:05.424Z,97952.78
2023-02-03T12:39:41.498Z,97941.25
2023-02-03T12:42:31.223Z,97932.47
2023-02-03T12:45:11.728Z,97928.03
2023-02-03T12:47:51.475Z,97911.34
2023-02-03T12:50:21.771Z,97903.41
2023-02-03T12:52:58.502Z,97894.53
2023-02-03T12:55:37.383Z,97876.78
2023-02-03T12:58:12.739Z,97876.00
2023-02-03T13:00:51.609Z,97874.06
2023-02-03T13:03:36.360Z,97854.72
2023-02-03T13:06:22.592Z,97851.13
2023-02-03T13:08:52.053Z,97847.63
2023-02-03T13:11:37.429Z,97843.34
2023-02-03T13:14:14.318Z,97841.50
2023-02-03T13:16:44.709Z,97822.19
2023-02-03T13:19:18.684Z,97816.91
2023-02-03T13:21:47.831Z,97803.78
2023-02-03T13:24:14.487Z,97796.84
2023-02-03T13:27:01.207Z,97788.78
2023-02-03T13:29:46.129Z,97788.91
2023-02-03T13:32:15.530Z,97779.31
2023-02-03T13:35:06.217Z,97766.09
2023-02-03T13:37:43.644Z,97765.25
2023-02-03T13:40:41.825Z,97749.69
2023-02-03T13:43:32.054Z,97747.72
2023-02-03T13:46:06.874Z,97740.75
2023-02-03T13:48:35.617Z,97733.69
2023-02-03T13:51:24.235Z,97728.53
2023-02-03T13:53:59.053Z,97722.41
2023-02-03T13:56:28.602Z,97713.78
2023-02-03T13:58:59.553Z,97702.50
2023-02-03T14:01:33.813Z,97704.28
2023-02-03T14:04:01.427Z,97684.22
2023-02-03T14:06:40.001Z,97676.28
2023-02-03T14:09:30.968Z,97672.97
2023-02-03T14:12:16.040Z,97669.47
2023-02-03T14:14:44.993Z,97654.56
2023-02-03T14:17:36.249Z,97644.00
2023-02-03T14:20:24.116Z,97641.38
2023-02-03T14:22:53.461Z,97637.75
2023-02-03T14:25:21.351Z,97625.66
2023-02-03T14:27:59.481Z,97612.72
2023-02-03T14:30:26.274Z,97623.59
2023-02-03T14:32:57.861Z,97606.91
2023-02-03T14:35:35.474Z,97606.75
2023-02-03T14:38:05.259Z,97594.38
2023-02-03T14:40:47.043Z,97596.06
2023-02-03T14:43:28.888Z,97592.47
2023-02-03T14:46:07.681Z,97584.66
2023-02-03T14:48:45.002Z,97572.41
2023-02-03T14:51:39.686Z,97562.66
2023-02-03T14:54:41.422Z,97564.63
2023-02-03T14:57:43.782Z,97561.13
2023-02-03T15:00:19.502Z,97556.81
2023-02-03T15:03:09.019Z,97557.81
2023-02-03T15:05:40.216Z,97551.69
2023-02-03T15:08:43.244Z,97547.34
2023-02-03T15:11:23.142Z,97536.91
2023-02-03T15:13:50.048Z,97542.34
2023-02-03T15:16:20.910Z,97547.66
2023-02-03T15:18:57.786Z,97541.50
2023-02-03T15:21:25.246Z,97545.97
2023-02-03T15:23:53.232Z,97537.22
2023-02-03T15:26:25.384Z,97534.56
2023-02-03T15:28:56.644Z,97533.69
2023-02-03T15:31:46.009Z,97562.06
2023-02-03T15:34:23.160Z,97548.59
2023-02-03T15:36:54.419Z,97554.16
2023-02-03T15:39:39.124Z,97558.59
2023-02-03T15:42:14.432Z,97539.41
2023-02-03T15:44:55.817Z,97538.59
2023-02-03T15:47:32.258Z,97526.34
2023-02-03T15:50:06.870Z,97526.47
2023-02-03T15:52:40.625Z,97537.88
2023-02-03T15:55:33.255Z,97522.31
2023-02-03T15:58:00.458Z,97537.31
2023-02-03T16:00:38.213Z,97526.31
2023-02-03T16:03:15.796Z,97528.69
2023-02-03T16:05:44.719Z,97513.78
2023-02-03T16:08:34.837Z,97524.38
2023-02-03T16:11:01.746Z,97522.84
2023-02-03T16:13:29.825Z,97522.84
2023-02-03T16:16:08.414Z,97529.09
2023-02-03T16:18:36.744Z,97532.69
2023-02-03T16:21:05.381Z,97518.53
2023-02-03T16:23:32.917Z,97523.97
2023-02-03T16:26:07.818Z,97513.09
2023-02-03T16:28:53.112Z,97524.94
2023-02-03T16:31:39.896Z,97523.25
2023-02-03T16:34:32.632Z,97527.81
2023-02-03T16:37:18.108Z,97518.22
2023-02-03T16:40:03.662Z,97526.28
2023-02-03T16:42:58.603Z,97522.09
2023-02-03T16:45:44.408Z,97525.84
2023-02-03T16:48:33.504Z,97522.41
2023-02-03T16:51:12.817Z,97512.78
2023-02-03T16:53:40.341Z,97513.75
2023-02-03T16:56:07.218Z,97509.16
2023-02-03T16:58:33.975Z,97525.28
2023-02-03T17:01:02.948Z,97527.50
2023-02-03T17:03:30.284Z,97527.22
2023-02-03T17:05:57.521Z,97526.38
2023-02-03T17:08:26.004Z,97524.72
2023-02-03T17:10:52.791Z,97518.44
2023-02-03T17:13:21.775Z,97520.53
2023-02-03T17:15:52.526Z,97521.38
2023-02-03T17:18:19.851Z,97516.19
2023-02-03T17:20:47.486Z,97523.72
2023-02-03T17:23:16.550Z,97540.94
2023-02-03T17:25:47.907Z,97541.38
2023-02-03T17:28:14.689Z,97556.09
2023-02-03T17:30:41.662Z,97537.59
2023-02-03T17:33:17.633Z,97554.56
2023-02-03T17:35:45.307Z,97551.78
2023-02-03T17:38:14.268Z,97564.13
2023-02-03T17:54:29.138Z,97595.38
2023-02-03T17:56:55.692Z,97600.78
2023-02-03T17:59:22.299Z,97606.91
2023-02-03T18:01:52.955Z,97615.81
2023-02-03T18:04:19.603Z,97614.13
2023-02-03T18:06:46.424Z,97614.94
2023-02-03T18:09:16.462Z,97604.09
2023-02-03T18:11:44.802Z,97620.63
2023-02-03T18:14:13.066Z,97613.94
2023-02-03T18:16:40.282Z,97619.50
2023-02-03T18:19:11.689Z,97620.38
2023-02-03T18:21:38.955Z,97623.00
2023-02-03T18:24:05.880Z,97620.38
2023-02-03T18:26:36.342Z,97633.56
2023-02-03T18:29:05.477Z,97620.50
2023-02-03T18:31:32.586Z,97625.06
2023-02-03T18:34:03.347Z,97632.84
2023-02-03T18:36:30.110Z,97636.44
2023-02-03T18:38:56.687Z,97628.53
2023-02-03T18:41:25.155Z,97626.88
2023-02-03T18:43:52.278Z,97632.16
2023-02-03T18:46:22.922Z,97642.81
2023-02-03T18:48:50.258Z,97628.00
2023-02-03T18:51:18.558Z,97628.84
2023-02-03T18:53:46.643Z,97648.09
2023-02-03T18:56:16.788Z,97655.06
2023-02-03T18:58:43.547Z,97631.59
2023-02-03T19:01:10.570Z,97650.75
2023-02-03T19:03:38.655Z,97638.06
2023-02-03T19:06:09.402Z,97646.56
2023-02-03T19:08:36.056Z,97656.16
2023-02-03T19:11:02.606Z,97659.75
2023-02-03T19:13:29.207Z,97659.75
2023-02-03T19:15:55.763Z,97659.91
2023-02-03T19:18:22.436Z,97660.72
2023-02-03T19:20:51.640Z,97658.22
2023-02-03T19:23:18.289Z,97659.91
2023-02-03T19:25:49.766Z,97667.81
2023-02-03T19:28:20.278Z,97663.34
2023-02-03T19:31:00.114Z,97652.81
2023-02-03T19:33:32.955Z,97660.47
2023-02-03T19:35:59.671Z,97657.13
2023-02-03T19:38:26.313Z,97655.06
2023-02-03T19:40:52.939Z,97658.56
2023-02-03T19:43:19.680Z,97662.25
2023-02-03T19:45:46.302Z,97661.88
2023-02-03T19:48:13.711Z,97647.53
2023-02-03T19:50:45.748Z,97660.94
2023-02-03T19:53:17.293Z,97661.06
2023-02-03T19:55:45.527Z,97669.44
2023-02-03T19:58:13.940Z,97659.09
2023-02-03T20:00:41.766Z,97666.66
2023-02-03T20:03:08.771Z,97672.88
2023-02-03T20:05:36.527Z,97659.63
2023-02-03T20:08:04.070Z,97682.38
2023-02-03T20:10:32.536Z,97674.31
2023-02-03T20:13:02.206Z,97678.63
2023-02-03T20:15:29.134Z,97681.28
2023-02-03T20:17:56.218Z,97672.66
2023-02-03T20:20:22.977Z,97668.78
2023-02-03T20:22:49.898Z,97678.50
2023-02-03T20:25:17.016Z,97678.50
2023-02-03T20:27:43.612Z,97671.09
2023-02-03T20:30:11.320Z,97669.28
2023-02-03T20:32:38.531Z,97676.81
2023-02-03T20:35:06.285Z,97676.59
2023-02-03T20:37:35.891Z,97675.72
2023-02-03T20:40:06.273Z,97671.41
2023-02-03T20:42:36.631Z,97671.16
2023-02-03T20:45:10.878Z,97672.00
2023-02-03T20:47:37.629Z,97671.41
2023-02-03T20:50:11.058Z,97671.31
2023-02-03T20:52:37.992Z,97667.66
2023-02-03T20:55:11.672Z,97675.47
2023-02-03T20:57:38.789Z,97674.50
2023-02-03T21:00:15.635Z,97662.28
2023-02-03T21:03:16.035Z,97671.16
2023-02-03T21:05:45.354Z,97674.50
2023-02-03T21:08:19.956Z,97680.63
2023-02-03T21:10:47.953Z,97670.44
2023-02-03T21:13:35.861Z,97679.78
2023-02-03T21:16:15.104Z,97678.94
2023-02-03T21:18:51.965Z,97687.69
2023-02-03T21:21:27.432Z,97678.94
2023-02-03T21:23:54.814Z,97685.19
2023-02-03T21:26:22.451Z,97673.81
2023-02-03T21:28:51.730Z,97647.88
2023-02-03T21:31:34.413Z,97676.00
2023-02-03T21:34:23.580Z,97672.00
2023-02-03T21:36:50.215Z,97670.72
2023-02-03T21:39:28.076Z,97676.44
2023-02-03T21:41:55.983Z,97672.13
2023-02-03T21:44:32.130Z,97674.63
2023-02-03T21:47:05.704Z,97676.44
2023-02-03T21:49:34.112Z,97674.63
2023-02-03T21:52:00.652Z,97655.00
2023-02-03T21:54:30.360Z,97677.28
2023-02-03T21:56:58.231Z,97671.31
2023-02-03T21:59:29.654Z,97670.19
2023-02-03T22:01:59.971Z,97661.72
2023-02-03T22:04:30.773Z,97670.19
2023-02-03T22:06:57.331Z,97677.13
2023-02-03T22:09:25.922Z,97662.81
2023-02-03T22:11:53.064Z,97635.88
2023-02-03T22:14:23.526Z,97652.63
2023-02-03T22:16:50.732Z,97662.16
2023-02-03T22:19:17.651Z,97656.16
2023-02-03T22:21:44.773Z,97655.06
2023-02-03T22:24:11.814Z,97661.28
2023-02-03T22:26:38.627Z,97656.72
2023-02-03T22:29:06.441Z,97661.19
2023-02-03T22:31:33.258Z,97661.28
2023-02-03T22:33:59.935Z,97668.16
2023-02-03T22:36:26.606Z,97651.38
2023-02-03T22:38:53.221Z,97666.47
2023-02-03T22:41:20.937Z,97653.06
2023-02-03T22:43:47.950Z,97673.44
2023-02-03T22:46:14.747Z,97665.38
2023-02-03T22:48:41.394Z,97674.09
2023-02-03T22:51:08.112Z,97658.53
2023-02-03T22:53:34.983Z,97668.81
2023-02-03T22:56:01.770Z,97661.03
2023-02-03T22:58:28.324Z,97669.69
2023-02-03T23:00:55.004Z,97657.69
2023-02-03T23:03:21.744Z,97673.28
2023-02-03T23:05:48.354Z,97669.78
2023-02-03T23:08:14.951Z,97651.16
2023-02-03T23:10:41.540Z,97657.31
2023-02-03T23:13:08.214Z,97633.88
2023-02-03T23:15:34.886Z,97626.63
2023-02-03T23:18:01.790Z,97655.53
2023-02-03T23:20:28.631Z,97659.13
2023-02-03T23:22:55.344Z,97649.53
2023-02-03T23:25:21.882Z,97642.00
2023-02-03T23:27:51.201Z,97644.25
2023-02-03T23:30:17.928Z,97633.34
2023-02-03T23:32:44.448Z,97644.09
2023-02-03T23:35:29.674Z,97644.97
2023-02-03T23:37:56.217Z,97637.16
2023-02-03T23:40:22.791Z,97630.06
2023-02-03T23:42:49.747Z,97617.69
2023-02-03T23:45:16.617Z,97622.16
2023-02-03T23:47:44.937Z,97625.63
2023-02-03T23:50:14.979Z,97622.25
2023-02-03T23:52:41.684Z,97616.88
2023-02-03T23:55:14.191Z,97610.75
2023-02-03T23:57:43.662Z,97617.97
